sensor_id;sensor_type;location;lat;lon;timestamp;temperature;humidity
17252;DHT22;8742;51.716;8.790;2022-10-31T00:00:06;13.30;99.90
17252;DHT22;8742;51.716;8.790;2022-10-31T00:02:33;13.30;99.90
17252;DHT22;8742;51.716;8.790;2022-10-31T00:05:00;13.30;99.90
17252;DHT22;8742;51.716;8.790;2022-10-31T00:07:28;13.30;99.90
17252;DHT22;8742;51.716;8.790;2022-10-31T00:09:55;13.30;99.90
17252;DHT22;8742;51.716;8.790;2022-10-31T00:12:22;13.30;99.90
17252;DHT22;8742;51.716;8.790;2022-10-31T00:14:49;13.40;99.90
17252;DHT22;8742;51.716;8.790;2022-10-31T00:17:15;13.40;99.90
17252;DHT22;8742;51.716;8.790;2022-10-31T00:19:42;13.50;99.90
17252;DHT22;8742;51.716;8.790;2022-10-31T00:22:09;13.50;99.90
17252;DHT22;8742;51.716;8.790;2022-10-31T00:24:37;13.60;99.90
17252;DHT22;8742;51.716;8.790;2022-10-31T00:27:04;13.60;99.90
17252;DHT22;8742;51.716;8.790;2022-10-31T00:29:31;13.70;99.90
17252;DHT22;8742;51.716;8.790;2022-10-31T00:31:58;13.90;99.90
17252;DHT22;8742;51.716;8.790;2022-10-31T00:34:24;14.00;99.90
17252;DHT22;8742;51.716;8.790;2022-10-31T00:36:51;14.10;99.90
17252;DHT22;8742;51.716;8.790;2022-10-31T00:39:18;14.20;99.90
17252;DHT22;8742;51.716;8.790;2022-10-31T00:41:46;14.20;99.90
17252;DHT22;8742;51.716;8.790;2022-10-31T00:44:13;14.30;99.90
17252;DHT22;8742;51.716;8.790;2022-10-31T00:46:40;14.30;99.90
17252;DHT22;8742;51.716;8.790;2022-10-31T00:49:06;14.40;99.90
17252;DHT22;8742;51.716;8.790;2022-10-31T00:51:33;14.40;99.90
17252;DHT22;8742;51.716;8.790;2022-10-31T00:54:00;14.50;99.90
17252;DHT22;8742;51.716;8.790;2022-10-31T00:56:27;14.60;99.90
17252;DHT22;8742;51.716;8.790;2022-10-31T00:58:55;14.70;99.90
17252;DHT22;8742;51.716;8.790;2022-10-31T01:01:22;14.70;99.90
17252;DHT22;8742;51.716;8.790;2022-10-31T01:03:49;14.70;99.90
17252;DHT22;8742;51.716;8.790;2022-10-31T01:06:15;14.80;99.90
17252;DHT22;8742;51.716;8.790;2022-10-31T01:08:42;14.80;99.90
17252;DHT22;8742;51.716;8.790;2022-10-31T01:11:13;14.70;99.90
17252;DHT22;8742;51.716;8.790;2022-10-31T01:13:40;14.70;99.90
17252;DHT22;8742;51.716;8.790;2022-10-31T01:16:11;14.70;99.90
17252;DHT22;8742;51.716;8.790;2022-10-31T01:18:38;14.70;99.90
17252;DHT22;8742;51.716;8.790;2022-10-31T01:21:07;14.70;99.90
17252;DHT22;8742;51.716;8.790;2022-10-31T01:23:35;14.80;99.90
17252;DHT22;8742;51.716;8.790;2022-10-31T01:26:06;14.80;99.90
17252;DHT22;8742;51.716;8.790;2022-10-31T01:28:34;14.80;99.90
17252;DHT22;8742;51.716;8.790;2022-10-31T01:31:03;14.80;99.90
17252;DHT22;8742;51.716;8.790;2022-10-31T01:33:32;14.80;99.90
17252;DHT22;8742;51.716;8.790;2022-10-31T01:35:58;14.80;99.90
17252;DHT22;8742;51.716;8.790;2022-10-31T01:38:26;14.90;99.90
17252;DHT22;8742;51.716;8.790;2022-10-31T01:40:53;14.90;99.90
17252;DHT22;8742;51.716;8.790;2022-10-31T01:43:20;14.90;99.90
17252;DHT22;8742;51.716;8.790;2022-10-31T01:45:51;14.90;99.90
17252;DHT22;8742;51.716;8.790;2022-10-31T01:48:21;14.90;99.90
17252;DHT22;8742;51.716;8.790;2022-10-31T01:50:54;14.90;99.90
17252;DHT22;8742;51.716;8.790;2022-10-31T01:53:22;14.80;99.90
17252;DHT22;8742;51.716;8.790;2022-10-31T01:55:49;14.80;99.90
17252;DHT22;8742;51.716;8.790;2022-10-31T01:58:21;14.80;99.90
17252;DHT22;8742;51.716;8.790;2022-10-31T02:00:51;14.80;99.90
17252;DHT22;8742;51.716;8.790;2022-10-31T02:03:20;14.70;99.90
17252;DHT22;8742;51.716;8.790;2022-10-31T02:05:49;14.70;99.90
17252;DHT22;8742;51.716;8.790;2022-10-31T02:08:21;14.60;99.90
17252;DHT22;8742;51.716;8.790;2022-10-31T02:10:49;14.50;99.90
17252;DHT22;8742;51.716;8.790;2022-10-31T02:13:17;14.40;99.90
17252;DHT22;8742;51.716;8.790;2022-10-31T02:15:48;14.30;99.90
17252;DHT22;8742;51.716;8.790;2022-10-31T02:18:16;14.20;99.90
17252;DHT22;8742;51.716;8.790;2022-10-31T02:20:57;14.10;99.90
17252;DHT22;8742;51.716;8.790;2022-10-31T02:26:54;13.80;99.90
17252;DHT22;8742;51.716;8.790;2022-10-31T02:32:27;13.50;99.90
17252;DHT22;8742;51.716;8.790;2022-10-31T02:34:58;13.40;99.90
17252;DHT22;8742;51.716;8.790;2022-10-31T02:37:37;13.30;99.90
17252;DHT22;8742;51.716;8.790;2022-10-31T02:40:10;13.20;99.90
17252;DHT22;8742;51.716;8.790;2022-10-31T02:42:45;13.10;99.90
17252;DHT22;8742;51.716;8.790;2022-10-31T02:45:20;13.00;99.90
17252;DHT22;8742;51.716;8.790;2022-10-31T02:47:53;13.00;99.90
17252;DHT22;8742;51.716;8.790;2022-10-31T02:50:24;13.00;99.90
17252;DHT22;8742;51.716;8.790;2022-10-31T02:52:53;12.90;99.90
17252;DHT22;8742;51.716;8.790;2022-10-31T02:55:49;12.90;99.90
17252;DHT22;8742;51.716;8.790;2022-10-31T02:58:21;12.90;99.90
17252;DHT22;8742;51.716;8.790;2022-10-31T03:01:06;12.90;99.90
17252;DHT22;8742;51.716;8.790;2022-10-31T03:03:46;12.90;99.90
17252;DHT22;8742;51.716;8.790;2022-10-31T03:06:20;12.90;99.90
17252;DHT22;8742;51.716;8.790;2022-10-31T03:08:53;12.90;99.90
17252;DHT22;8742;51.716;8.790;2022-10-31T03:11:24;13.00;99.90
17252;DHT22;8742;51.716;8.790;2022-10-31T03:13:59;13.00;99.90
17252;DHT22;8742;51.716;8.790;2022-10-31T03:16:31;13.10;99.90
17252;DHT22;8742;51.716;8.790;2022-10-31T03:19:05;13.20;99.90
17252;DHT22;8742;51.716;8.790;2022-10-31T03:21:37;13.20;99.90
17252;DHT22;8742;51.716;8.790;2022-10-31T03:24:07;13.30;99.90
17252;DHT22;8742;51.716;8.790;2022-10-31T03:26:36;13.30;99.90
17252;DHT22;8742;51.716;8.790;2022-10-31T03:29:06;13.30;99.90
17252;DHT22;8742;51.716;8.790;2022-10-31T03:31:36;13.30;99.90
17252;DHT22;8742;51.716;8.790;2022-10-31T03:34:08;13.30;99.90
17252;DHT22;8742;51.716;8.790;2022-10-31T03:36:38;13.30;99.90
17252;DHT22;8742;51.716;8.790;2022-10-31T03:39:09;13.30;99.90
17252;DHT22;8742;51.716;8.790;2022-10-31T03:41:40;13.20;99.90
17252;DHT22;8742;51.716;8.790;2022-10-31T03:44:10;13.20;99.90
17252;DHT22;8742;51.716;8.790;2022-10-31T03:46:38;13.20;99.90
17252;DHT22;8742;51.716;8.790;2022-10-31T03:49:07;13.10;99.90
17252;DHT22;8742;51.716;8.790;2022-10-31T03:51:38;13.00;99.90
17252;DHT22;8742;51.716;8.790;2022-10-31T03:54:11;12.90;99.90
17252;DHT22;8742;51.716;8.790;2022-10-31T03:56:50;12.90;99.90
17252;DHT22;8742;51.716;8.790;2022-10-31T03:59:23;12.80;99.90
17252;DHT22;8742;51.716;8.790;2022-10-31T04:01:52;12.70;99.90
17252;DHT22;8742;51.716;8.790;2022-10-31T04:04:21;12.60;99.90
17252;DHT22;8742;51.716;8.790;2022-10-31T04:06:50;12.50;99.90
17252;DHT22;8742;51.716;8.790;2022-10-31T04:09:18;12.50;99.90
17252;DHT22;8742;51.716;8.790;2022-10-31T04:11:50;12.40;99.90
17252;DHT22;8742;51.716;8.790;2022-10-31T04:14:18;12.30;99.90
17252;DHT22;8742;51.716;8.790;2022-10-31T04:16:46;12.30;99.90
17252;DHT22;8742;51.716;8.790;2022-10-31T04:19:14;12.20;99.90
17252;DHT22;8742;51.716;8.790;2022-10-31T04:21:42;12.20;99.90
17252;DHT22;8742;51.716;8.790;2022-10-31T04:24:09;12.10;99.90
17252;DHT22;8742;51.716;8.790;2022-10-31T04:26:36;12.00;99.90
17252;DHT22;8742;51.716;8.790;2022-10-31T04:29:03;11.90;99.90
17252;DHT22;8742;51.716;8.790;2022-10-31T04:31:30;11.90;99.90
17252;DHT22;8742;51.716;8.790;2022-10-31T04:33:57;11.80;99.90
17252;DHT22;8742;51.716;8.790;2022-10-31T04:36:24;11.80;99.90
17252;DHT22;8742;51.716;8.790;2022-10-31T04:38:52;11.70;99.90
17252;DHT22;8742;51.716;8.790;2022-10-31T04:41:19;11.60;99.90
17252;DHT22;8742;51.716;8.790;2022-10-31T04:43:45;11.60;99.90
17252;DHT22;8742;51.716;8.790;2022-10-31T04:46:12;11.50;99.90
17252;DHT22;8742;51.716;8.790;2022-10-31T04:48:39;11.50;99.90
17252;DHT22;8742;51.716;8.790;2022-10-31T04:51:06;11.40;99.90
17252;DHT22;8742;51.716;8.790;2022-10-31T04:53:33;11.40;99.90
17252;DHT22;8742;51.716;8.790;2022-10-31T04:56:01;11.40;99.90
17252;DHT22;8742;51.716;8.790;2022-10-31T04:58:28;11.40;99.90
17252;DHT22;8742;51.716;8.790;2022-10-31T05:00:55;11.30;99.90
17252;DHT22;8742;51.716;8.790;2022-10-31T05:03:22;11.30;99.90
17252;DHT22;8742;51.716;8.790;2022-10-31T05:05:49;11.30;99.90
17252;DHT22;8742;51.716;8.790;2022-10-31T05:08:16;11.30;99.90
17252;DHT22;8742;51.716;8.790;2022-10-31T05:10:43;11.20;99.90
17252;DHT22;8742;51.716;8.790;2022-10-31T05:13:11;11.20;99.90
17252;DHT22;8742;51.716;8.790;2022-10-31T05:15:40;11.20;99.90
17252;DHT22;8742;51.716;8.790;2022-10-31T05:18:07;11.20;99.90
17252;DHT22;8742;51.716;8.790;2022-10-31T05:20:34;11.20;99.90
17252;DHT22;8742;51.716;8.790;2022-10-31T05:23:01;11.20;99.90
17252;DHT22;8742;51.716;8.790;2022-10-31T05:25:28;11.20;99.90
17252;DHT22;8742;51.716;8.790;2022-10-31T05:27:56;11.20;99.90
17252;DHT22;8742;51.716;8.790;2022-10-31T05:30:26;11.20;99.90
17252;DHT22;8742;51.716;8.790;2022-10-31T05:32:54;11.20;99.90
17252;DHT22;8742;51.716;8.790;2022-10-31T05:35:22;11.20;99.90
17252;DHT22;8742;51.716;8.790;2022-10-31T05:37:49;11.20;99.90
17252;DHT22;8742;51.716;8.790;2022-10-31T05:40:17;11.20;99.90
17252;DHT22;8742;51.716;8.790;2022-10-31T05:42:45;11.20;99.90
17252;DHT22;8742;51.716;8.790;2022-10-31T05:45:14;11.20;99.90
17252;DHT22;8742;51.716;8.790;2022-10-31T05:47:42;11.20;99.90
17252;DHT22;8742;51.716;8.790;2022-10-31T05:50:16;11.20;99.90
17252;DHT22;8742;51.716;8.790;2022-10-31T05:52:42;11.20;99.90
17252;DHT22;8742;51.716;8.790;2022-10-31T05:55:09;11.20;99.90
17252;DHT22;8742;51.716;8.790;2022-10-31T05:57:36;11.20;99.90
17252;DHT22;8742;51.716;8.790;2022-10-31T06:00:04;11.20;99.90
17252;DHT22;8742;51.716;8.790;2022-10-31T06:02:31;11.20;99.90
17252;DHT22;8742;51.716;8.790;2022-10-31T06:05:01;11.20;99.90
17252;DHT22;8742;51.716;8.790;2022-10-31T06:07:32;11.20;99.90
17252;DHT22;8742;51.716;8.790;2022-10-31T06:09:58;11.20;99.90
17252;DHT22;8742;51.716;8.790;2022-10-31T06:12:25;11.20;99.90
17252;DHT22;8742;51.716;8.790;2022-10-31T06:14:52;11.20;99.90
17252;DHT22;8742;51.716;8.790;2022-10-31T06:17:19;11.20;99.90
17252;DHT22;8742;51.716;8.790;2022-10-31T06:19:46;11.20;99.90
17252;DHT22;8742;51.716;8.790;2022-10-31T06:22:14;11.20;99.90
17252;DHT22;8742;51.716;8.790;2022-10-31T06:24:41;11.20;99.90
17252;DHT22;8742;51.716;8.790;2022-10-31T06:27:07;11.20;99.90
17252;DHT22;8742;51.716;8.790;2022-10-31T06:29:34;11.20;99.90
17252;DHT22;8742;51.716;8.790;2022-10-31T06:32:01;11.10;99.90
17252;DHT22;8742;51.716;8.790;2022-10-31T06:34:28;11.10;99.90
17252;DHT22;8742;51.716;8.790;2022-10-31T06:36:55;11.10;99.90
17252;DHT22;8742;51.716;8.790;2022-10-31T06:39:23;11.20;99.90
17252;DHT22;8742;51.716;8.790;2022-10-31T06:41:49;11.20;99.90
17252;DHT22;8742;51.716;8.790;2022-10-31T06:44:16;11.30;99.90
17252;DHT22;8742;51.716;8.790;2022-10-31T06:46:43;11.40;99.90
17252;DHT22;8742;51.716;8.790;2022-10-31T06:49:12;11.50;99.90
17252;DHT22;8742;51.716;8.790;2022-10-31T06:51:39;11.60;99.90
17252;DHT22;8742;51.716;8.790;2022-10-31T06:54:05;11.60;99.90
17252;DHT22;8742;51.716;8.790;2022-10-31T06:56:34;11.70;99.90
17252;DHT22;8742;51.716;8.790;2022-10-31T06:59:01;11.80;99.90
17252;DHT22;8742;51.716;8.790;2022-10-31T07:01:27;11.90;99.90
17252;DHT22;8742;51.716;8.790;2022-10-31T07:03:54;11.90;99.90
17252;DHT22;8742;51.716;8.790;2022-10-31T07:06:21;12.00;99.90
17252;DHT22;8742;51.716;8.790;2022-10-31T07:08:48;12.00;99.90
17252;DHT22;8742;51.716;8.790;2022-10-31T07:11:14;12.00;99.90
17252;DHT22;8742;51.716;8.790;2022-10-31T07:13:43;12.10;99.90
17252;DHT22;8742;51.716;8.790;2022-10-31T07:16:10;12.10;99.90
17252;DHT22;8742;51.716;8.790;2022-10-31T07:18:38;12.20;99.90
17252;DHT22;8742;51.716;8.790;2022-10-31T07:21:05;12.20;99.90
17252;DHT22;8742;51.716;8.790;2022-10-31T07:23:32;12.30;99.90
17252;DHT22;8742;51.716;8.790;2022-10-31T07:25:59;12.30;99.90
17252;DHT22;8742;51.716;8.790;2022-10-31T07:28:27;12.40;99.90
17252;DHT22;8742;51.716;8.790;2022-10-31T07:30:56;12.50;99.90
17252;DHT22;8742;51.716;8.790;2022-10-31T07:33:24;12.60;99.90
17252;DHT22;8742;51.716;8.790;2022-10-31T07:35:51;12.60;99.90
17252;DHT22;8742;51.716;8.790;2022-10-31T07:38:18;12.70;99.90
17252;DHT22;8742;51.716;8.790;2022-10-31T07:40:49;12.80;99.90
17252;DHT22;8742;51.716;8.790;2022-10-31T07:43:16;12.90;99.90
17252;DHT22;8742;51.716;8.790;2022-10-31T07:45:43;13.00;99.90
17252;DHT22;8742;51.716;8.790;2022-10-31T07:48:11;13.10;99.90
17252;DHT22;8742;51.716;8.790;2022-10-31T07:50:38;13.20;99.90
17252;DHT22;8742;51.716;8.790;2022-10-31T07:53:06;13.40;99.90
17252;DHT22;8742;51.716;8.790;2022-10-31T07:55:34;13.50;99.90
17252;DHT22;8742;51.716;8.790;2022-10-31T07:58:03;13.60;99.90
17252;DHT22;8742;51.716;8.790;2022-10-31T08:00:30;13.80;99.90
17252;DHT22;8742;51.716;8.790;2022-10-31T08:02:59;13.90;99.90
17252;DHT22;8742;51.716;8.790;2022-10-31T08:05:27;14.10;99.90
17252;DHT22;8742;51.716;8.790;2022-10-31T08:07:54;14.20;99.90
17252;DHT22;8742;51.716;8.790;2022-10-31T08:10:21;14.30;99.90
17252;DHT22;8742;51.716;8.790;2022-10-31T08:12:55;14.50;99.90
17252;DHT22;8742;51.716;8.790;2022-10-31T08:15:22;14.60;99.90
17252;DHT22;8742;51.716;8.790;2022-10-31T08:17:49;14.80;99.90
17252;DHT22;8742;51.716;8.790;2022-10-31T08:20:15;14.90;99.90
17252;DHT22;8742;51.716;8.790;2022-10-31T08:22:52;15.20;99.90
17252;DHT22;8742;51.716;8.790;2022-10-31T08:25:19;15.70;99.90
17252;DHT22;8742;51.716;8.790;2022-10-31T08:27:49;16.20;99.90
17252;DHT22;8742;51.716;8.790;2022-10-31T08:30:16;16.80;99.90
17252;DHT22;8742;51.716;8.790;2022-10-31T08:32:43;17.40;99.90
17252;DHT22;8742;51.716;8.790;2022-10-31T08:35:09;17.80;99.90
17252;DHT22;8742;51.716;8.790;2022-10-31T08:37:36;18.20;99.90
17252;DHT22;8742;51.716;8.790;2022-10-31T08:40:06;18.40;99.90
17252;DHT22;8742;51.716;8.790;2022-10-31T08:42:33;18.50;99.90
17252;DHT22;8742;51.716;8.790;2022-10-31T08:44:59;18.60;99.90
17252;DHT22;8742;51.716;8.790;2022-10-31T08:47:26;18.60;99.90
17252;DHT22;8742;51.716;8.790;2022-10-31T08:49:54;18.70;99.90
17252;DHT22;8742;51.716;8.790;2022-10-31T08:52:23;18.70;99.90
17252;DHT22;8742;51.716;8.790;2022-10-31T08:54:50;18.70;99.90
17252;DHT22;8742;51.716;8.790;2022-10-31T08:57:18;18.70;99.90
17252;DHT22;8742;51.716;8.790;2022-10-31T08:59:45;18.70;99.90
17252;DHT22;8742;51.716;8.790;2022-10-31T09:02:12;18.80;99.90
17252;DHT22;8742;51.716;8.790;2022-10-31T09:04:39;19.00;99.90
17252;DHT22;8742;51.716;8.790;2022-10-31T09:07:06;19.20;99.90
17252;DHT22;8742;51.716;8.790;2022-10-31T09:09:32;19.30;99.90
17252;DHT22;8742;51.716;8.790;2022-10-31T09:11:59;19.50;99.90
17252;DHT22;8742;51.716;8.790;2022-10-31T09:14:27;19.70;99.90
17252;DHT22;8742;51.716;8.790;2022-10-31T09:16:54;19.80;99.90
17252;DHT22;8742;51.716;8.790;2022-10-31T09:19:21;19.90;99.90
17252;DHT22;8742;51.716;8.790;2022-10-31T09:21:51;19.90;99.90
17252;DHT22;8742;51.716;8.790;2022-10-31T09:24:18;20.00;99.90
17252;DHT22;8742;51.716;8.790;2022-10-31T09:26:44;20.20;99.90
17252;DHT22;8742;51.716;8.790;2022-10-31T09:29:11;20.40;99.90
17252;DHT22;8742;51.716;8.790;2022-10-31T09:31:39;20.60;99.90
17252;DHT22;8742;51.716;8.790;2022-10-31T09:34:06;20.70;99.90
17252;DHT22;8742;51.716;8.790;2022-10-31T09:36:33;20.80;99.90
17252;DHT22;8742;51.716;8.790;2022-10-31T09:39:00;20.90;99.90
17252;DHT22;8742;51.716;8.790;2022-10-31T09:41:31;21.00;99.90
17252;DHT22;8742;51.716;8.790;2022-10-31T09:44:07;20.90;99.90
17252;DHT22;8742;51.716;8.790;2022-10-31T09:46:46;21.00;99.90
17252;DHT22;8742;51.716;8.790;2022-10-31T09:49:30;21.10;99.90
17252;DHT22;8742;51.716;8.790;2022-10-31T09:52:01;21.10;99.90
17252;DHT22;8742;51.716;8.790;2022-10-31T09:54:36;21.20;99.90
17252;DHT22;8742;51.716;8.790;2022-10-31T09:57:05;21.30;99.90
17252;DHT22;8742;51.716;8.790;2022-10-31T09:59:38;21.40;99.90
17252;DHT22;8742;51.716;8.790;2022-10-31T10:02:16;21.60;99.90
17252;DHT22;8742;51.716;8.790;2022-10-31T10:04:48;21.80;99.90
17252;DHT22;8742;51.716;8.790;2022-10-31T10:07:24;21.90;99.90
17252;DHT22;8742;51.716;8.790;2022-10-31T10:09:53;22.00;99.90
17252;DHT22;8742;51.716;8.790;2022-10-31T10:12:43;22.20;99.90
17252;DHT22;8742;51.716;8.790;2022-10-31T10:15:37;22.30;99.90
17252;DHT22;8742;51.716;8.790;2022-10-31T10:18:12;22.50;99.90
17252;DHT22;8742;51.716;8.790;2022-10-31T10:20:57;22.70;99.90
17252;DHT22;8742;51.716;8.790;2022-10-31T10:23:37;22.80;99.90
17252;DHT22;8742;51.716;8.790;2022-10-31T10:26:15;23.00;99.90
17252;DHT22;8742;51.716;8.790;2022-10-31T10:28:44;23.10;99.90
17252;DHT22;8742;51.716;8.790;2022-10-31T10:31:15;23.00;99.90
17252;DHT22;8742;51.716;8.790;2022-10-31T10:33:51;23.00;99.90
17252;DHT22;8742;51.716;8.790;2022-10-31T10:36:25;23.00;99.90
17252;DHT22;8742;51.716;8.790;2022-10-31T10:38:57;23.10;99.90
17252;DHT22;8742;51.716;8.790;2022-10-31T10:41:28;23.30;99.90
17252;DHT22;8742;51.716;8.790;2022-10-31T10:43:56;23.60;99.90
17252;DHT22;8742;51.716;8.790;2022-10-31T10:46:26;23.90;99.90
17252;DHT22;8742;51.716;8.790;2022-10-31T10:49:18;24.10;99.90
17252;DHT22;8742;51.716;8.790;2022-10-31T10:51:47;24.30;99.90
17252;DHT22;8742;51.716;8.790;2022-10-31T10:54:42;24.40;99.90
17252;DHT22;8742;51.716;8.790;2022-10-31T10:57:32;24.40;99.90
17252;DHT22;8742;51.716;8.790;2022-10-31T11:00:21;24.40;99.90
17252;DHT22;8742;51.716;8.790;2022-10-31T11:02:48;24.60;99.90
17252;DHT22;8742;51.716;8.790;2022-10-31T11:05:22;24.60;99.90
17252;DHT22;8742;51.716;8.790;2022-10-31T11:07:50;24.90;99.90
17252;DHT22;8742;51.716;8.790;2022-10-31T11:10:17;25.00;99.90
17252;DHT22;8742;51.716;8.790;2022-10-31T11:12:56;25.00;99.90
17252;DHT22;8742;51.716;8.790;2022-10-31T11:15:25;25.10;99.90
17252;DHT22;8742;51.716;8.790;2022-10-31T11:17:54;25.30;99.90
17252;DHT22;8742;51.716;8.790;2022-10-31T11:20:31;25.30;99.90
17252;DHT22;8742;51.716;8.790;2022-10-31T11:23:10;25.20;99.90
17252;DHT22;8742;51.716;8.790;2022-10-31T11:25:48;25.20;99.90
17252;DHT22;8742;51.716;8.790;2022-10-31T11:28:15;25.00;99.90
17252;DHT22;8742;51.716;8.790;2022-10-31T11:30:46;24.80;99.90
17252;DHT22;8742;51.716;8.790;2022-10-31T11:33:20;24.80;99.90
17252;DHT22;8742;51.716;8.790;2022-10-31T11:35:49;25.20;99.90
17252;DHT22;8742;51.716;8.790;2022-10-31T11:38:22;25.50;99.90
17252;DHT22;8742;51.716;8.790;2022-10-31T11:40:53;25.60;99.90
17252;DHT22;8742;51.716;8.790;2022-10-31T11:43:21;25.60;99.90
17252;DHT22;8742;51.716;8.790;2022-10-31T11:45:48;25.50;99.90
17252;DHT22;8742;51.716;8.790;2022-10-31T11:48:17;25.30;99.90
17252;DHT22;8742;51.716;8.790;2022-10-31T11:50:50;24.90;99.90
17252;DHT22;8742;51.716;8.790;2022-10-31T11:53:25;24.60;99.90
17252;DHT22;8742;51.716;8.790;2022-10-31T11:56:03;24.30;99.90
17252;DHT22;8742;51.716;8.790;2022-10-31T11:58:30;24.00;99.90
17252;DHT22;8742;51.716;8.790;2022-10-31T12:00:58;23.80;99.90
17252;DHT22;8742;51.716;8.790;2022-10-31T12:03:37;23.70;99.90
17252;DHT22;8742;51.716;8.790;2022-10-31T12:06:09;23.70;99.90
17252;DHT22;8742;51.716;8.790;2022-10-31T12:08:38;23.80;99.90
17252;DHT22;8742;51.716;8.790;2022-10-31T12:11:11;23.70;99.90
17252;DHT22;8742;51.716;8.790;2022-10-31T12:13:47;23.70;99.90
17252;DHT22;8742;51.716;8.790;2022-10-31T12:16:21;23.70;99.90
17252;DHT22;8742;51.716;8.790;2022-10-31T12:18:57;23.70;99.90
17252;DHT22;8742;51.716;8.790;2022-10-31T12:21:40;23.70;99.90
17252;DHT22;8742;51.716;8.790;2022-10-31T12:24:18;23.80;99.90
17252;DHT22;8742;51.716;8.790;2022-10-31T12:26:55;23.80;99.90
17252;DHT22;8742;51.716;8.790;2022-10-31T12:29:35;23.80;99.90
17252;DHT22;8742;51.716;8.790;2022-10-31T12:32:18;23.60;99.90
17252;DHT22;8742;51.716;8.790;2022-10-31T12:35:03;23.40;99.90
17252;DHT22;8742;51.716;8.790;2022-10-31T12:37:44;23.20;99.90
17252;DHT22;8742;51.716;8.790;2022-10-31T12:40:42;23.00;99.90
17252;DHT22;8742;51.716;8.790;2022-10-31T12:43:22;22.90;99.90
17252;DHT22;8742;51.716;8.790;2022-10-31T12:45:53;22.70;99.90
17252;DHT22;8742;51.716;8.790;2022-10-31T12:48:54;22.60;99.90
17252;DHT22;8742;51.716;8.790;2022-10-31T12:51:31;22.30;99.90
17252;DHT22;8742;51.716;8.790;2022-10-31T12:54:19;22.10;99.90
17252;DHT22;8742;51.716;8.790;2022-10-31T12:56:54;21.90;99.90
17252;DHT22;8742;51.716;8.790;2022-10-31T12:59:29;21.90;99.90
17252;DHT22;8742;51.716;8.790;2022-10-31T13:02:02;21.90;99.90
17252;DHT22;8742;51.716;8.790;2022-10-31T13:04:41;21.80;99.90
17252;DHT22;8742;51.716;8.790;2022-10-31T13:07:15;21.70;99.90
17252;DHT22;8742;51.716;8.790;2022-10-31T13:09:53;21.70;99.90
17252;DHT22;8742;51.716;8.790;2022-10-31T13:12:21;21.60;99.90
17252;DHT22;8742;51.716;8.790;2022-10-31T13:14:50;21.60;99.90
17252;DHT22;8742;51.716;8.790;2022-10-31T13:17:25;21.50;99.90
17252;DHT22;8742;51.716;8.790;2022-10-31T13:20:00;21.40;99.90
17252;DHT22;8742;51.716;8.790;2022-10-31T13:22:31;21.30;99.90
17252;DHT22;8742;51.716;8.790;2022-10-31T13:25:15;21.20;99.90
17252;DHT22;8742;51.716;8.790;2022-10-31T13:27:47;21.10;99.90
17252;DHT22;8742;51.716;8.790;2022-10-31T13:30:18;21.10;99.90
17252;DHT22;8742;51.716;8.790;2022-10-31T13:32:49;21.00;99.90
17252;DHT22;8742;51.716;8.790;2022-10-31T13:35:25;21.00;99.90
17252;DHT22;8742;51.716;8.790;2022-10-31T13:38:04;21.00;99.90
17252;DHT22;8742;51.716;8.790;2022-10-31T13:40:42;21.00;99.90
17252;DHT22;8742;51.716;8.790;2022-10-31T13:43:17;21.00;99.90
17252;DHT22;8742;51.716;8.790;2022-10-31T13:45:51;21.00;99.90
17252;DHT22;8742;51.716;8.790;2022-10-31T13:48:33;21.00;99.90
17252;DHT22;8742;51.716;8.790;2022-10-31T13:51:03;21.00;99.90
17252;DHT22;8742;51.716;8.790;2022-10-31T13:53:39;21.00;99.90
17252;DHT22;8742;51.716;8.790;2022-10-31T13:56:18;20.90;99.90
17252;DHT22;8742;51.716;8.790;2022-10-31T13:59:02;21.00;99.90
17252;DHT22;8742;51.716;8.790;2022-10-31T14:01:31;21.00;99.90
17252;DHT22;8742;51.716;8.790;2022-10-31T14:04:20;21.00;99.90
17252;DHT22;8742;51.716;8.790;2022-10-31T14:06:54;20.90;99.90
17252;DHT22;8742;51.716;8.790;2022-10-31T14:09:26;20.80;99.90
17252;DHT22;8742;51.716;8.790;2022-10-31T14:12:02;20.70;99.90
17252;DHT22;8742;51.716;8.790;2022-10-31T14:14:53;20.60;99.90
17252;DHT22;8742;51.716;8.790;2022-10-31T14:17:38;20.50;99.90
17252;DHT22;8742;51.716;8.790;2022-10-31T14:20:39;20.30;99.90
17252;DHT22;8742;51.716;8.790;2022-10-31T14:23:36;20.10;99.90
17252;DHT22;8742;51.716;8.790;2022-10-31T14:26:31;20.00;99.90
17252;DHT22;8742;51.716;8.790;2022-10-31T14:29:21;19.90;99.90
17252;DHT22;8742;51.716;8.790;2022-10-31T14:31:57;19.80;99.90
17252;DHT22;8742;51.716;8.790;2022-10-31T14:34:27;19.70;99.90
17252;DHT22;8742;51.716;8.790;2022-10-31T14:37:21;19.60;99.90
17252;DHT22;8742;51.716;8.790;2022-10-31T14:40:17;19.50;99.90
17252;DHT22;8742;51.716;8.790;2022-10-31T14:46:18;19.30;99.90
17252;DHT22;8742;51.716;8.790;2022-10-31T14:50:09;19.20;99.90
17252;DHT22;8742;51.716;8.790;2022-10-31T14:52:06;19.10;99.90
17252;DHT22;8742;51.716;8.790;2022-10-31T14:54:43;19.00;99.90
17252;DHT22;8742;51.716;8.790;2022-10-31T14:57:16;18.90;99.90
17252;DHT22;8742;51.716;8.790;2022-10-31T15:00:12;18.80;99.90
17252;DHT22;8742;51.716;8.790;2022-10-31T15:03:03;18.70;99.90
17252;DHT22;8742;51.716;8.790;2022-10-31T15:08:53;18.60;99.90
17252;DHT22;8742;51.716;8.790;2022-10-31T15:20:53;18.30;99.90
17252;DHT22;8742;51.716;8.790;2022-10-31T15:23:23;18.20;99.90
17252;DHT22;8742;51.716;8.790;2022-10-31T15:25:50;18.10;99.90
17252;DHT22;8742;51.716;8.790;2022-10-31T15:28:23;18.10;99.90
17252;DHT22;8742;51.716;8.790;2022-10-31T15:30:51;18.10;99.90
17252;DHT22;8742;51.716;8.790;2022-10-31T15:45:41;17.80;99.90
17252;DHT22;8742;51.716;8.790;2022-10-31T15:51:39;17.80;99.90
17252;DHT22;8742;51.716;8.790;2022-10-31T15:54:11;17.80;99.90
17252;DHT22;8742;51.716;8.790;2022-10-31T15:56:43;17.70;99.90
17252;DHT22;8742;51.716;8.790;2022-10-31T15:59:16;17.70;99.90
17252;DHT22;8742;51.716;8.790;2022-10-31T16:01:59;17.60;99.90
17252;DHT22;8742;51.716;8.790;2022-10-31T16:04:27;17.60;99.90
17252;DHT22;8742;51.716;8.790;2022-10-31T16:07:01;17.50;99.90
17252;DHT22;8742;51.716;8.790;2022-10-31T16:09:28;17.50;99.90
17252;DHT22;8742;51.716;8.790;2022-10-31T16:11:56;17.40;99.90
17252;DHT22;8742;51.716;8.790;2022-10-31T16:14:26;17.40;99.90
17252;DHT22;8742;51.716;8.790;2022-10-31T16:16:57;17.40;99.90
17252;DHT22;8742;51.716;8.790;2022-10-31T16:19:27;17.40;99.90
17252;DHT22;8742;51.716;8.790;2022-10-31T16:22:01;17.40;99.90
17252;DHT22;8742;51.716;8.790;2022-10-31T16:24:30;17.40;99.90
17252;DHT22;8742;51.716;8.790;2022-10-31T16:27:01;17.40;99.90
17252;DHT22;8742;51.716;8.790;2022-10-31T16:29:41;17.40;99.90
17252;DHT22;8742;51.716;8.790;2022-10-31T16:32:25;17.40;99.90
17252;DHT22;8742;51.716;8.790;2022-10-31T16:34:58;17.50;99.90
17252;DHT22;8742;51.716;8.790;2022-10-31T16:37:25;17.50;99.90
17252;DHT22;8742;51.716;8.790;2022-10-31T16:39:52;17.50;99.90
17252;DHT22;8742;51.716;8.790;2022-10-31T16:42:19;17.50;99.90
17252;DHT22;8742;51.716;8.790;2022-10-31T16:44:46;17.50;99.90
17252;DHT22;8742;51.716;8.790;2022-10-31T16:47:15;17.50;99.90
17252;DHT22;8742;51.716;8.790;2022-10-31T16:49:47;17.50;99.90